sensor_id;sensor_type;location;lat;lon;timestamp;P1;durP1;ratioP1;P2;durP2;ratioP2
73089;SDS011;61269;49.450;8.610;2023-02-03T00:00:09;8.68;;;2.80;;
73089;SDS011;61269;49.450;8.610;2023-02-03T00:03:00;7.45;;;3.15;;
73089;SDS011;61269;49.450;8.610;2023-02-03T00:05:28;7.45;;;3.67;;
73089;SDS011;61269;49.450;8.610;2023-02-03T00:07:58;8.25;;;3.38;;
73089;SDS011;61269;49.450;8.610;2023-02-03T00:10:26;7.10;;;3.23;;
73089;SDS011;61269;49.450;8.610;2023-02-03T00:12:54;11.43;;;3.53;;
73089;SDS011;61269;49.450;8.610;2023-02-03T00:15:23;6.68;;;2.95;;
73089;SDS011;61269;49.450;8.610;2023-02-03T00:17:53;7.32;;;3.22;;
73089;SDS011;61269;49.450;8.610;2023-02-03T00:20:22;9.45;;;3.60;;
73089;SDS011;61269;49.450;8.610;2023-02-03T00:22:52;10.03;;;3.20;;
73089;SDS011;61269;49.450;8.610;2023-02-03T00:25:20;8.10;;;3.05;;
73089;SDS011;61269;49.450;8.610;2023-02-03T00:27:48;8.85;;;3.15;;
73089;SDS011;61269;49.450;8.610;2023-02-03T00:30:17;9.40;;;3.55;;
73089;SDS011;61269;49.450;8.610;2023-02-03T00:32:46;10.65;;;3.08;;
73089;SDS011;61269;49.450;8.610;2023-02-03T00:35:14;9.07;;;3.60;;
73089;SDS011;61269;49.450;8.610;2023-02-03T00:37:44;8.00;;;3.42;;
73089;SDS011;61269;49.450;8.610;2023-02-03T00:40:20;10.13;;;3.40;;
73089;SDS011;61269;49.450;8.610;2023-02-03T00:42:49;8.50;;;2.85;;
73089;SDS011;61269;49.450;8.610;2023-02-03T00:45:18;10.52;;;3.38;;
73089;SDS011;61269;49.450;8.610;2023-02-03T00:47:46;9.27;;;3.17;;
73089;SDS011;61269;49.450;8.610;2023-02-03T00:50:14;7.95;;;2.78;;
73089;SDS011;61269;49.450;8.610;2023-02-03T00:52:45;6.90;;;3.42;;
73089;SDS011;61269;49.450;8.610;2023-02-03T00:55:13;6.53;;;3.00;;
73089;SDS011;61269;49.450;8.610;2023-02-03T00:57:41;7.65;;;3.28;;
73089;SDS011;61269;49.450;8.610;2023-02-03T01:00:10;9.37;;;3.17;;
73089;SDS011;61269;49.450;8.610;2023-02-03T01:02:39;9.75;;;3.10;;
73089;SDS011;61269;49.450;8.610;2023-02-03T01:05:07;9.32;;;3.03;;
73089;SDS011;61269;49.450;8.610;2023-02-03T01:07:36;7.18;;;2.83;;
73089;SDS011;61269;49.450;8.610;2023-02-03T01:10:06;8.05;;;3.15;;
73089;SDS011;61269;49.450;8.610;2023-02-03T01:12:35;8.77;;;2.73;;
73089;SDS011;61269;49.450;8.610;2023-02-03T01:15:03;7.65;;;2.60;;
73089;SDS011;61269;49.450;8.610;2023-02-03T01:17:32;10.48;;;2.88;;
73089;SDS011;61269;49.450;8.610;2023-02-03T01:20:00;9.40;;;2.90;;
73089;SDS011;61269;49.450;8.610;2023-02-03T01:22:29;7.35;;;3.10;;
73089;SDS011;61269;49.450;8.610;2023-02-03T01:24:57;8.10;;;3.10;;
73089;SDS011;61269;49.450;8.610;2023-02-03T01:27:28;7.75;;;3.00;;
73089;SDS011;61269;49.450;8.610;2023-02-03T01:29:56;7.40;;;2.78;;
73089;SDS011;61269;49.450;8.610;2023-02-03T01:32:25;7.70;;;2.42;;
73089;SDS011;61269;49.450;8.610;2023-02-03T01:34:53;9.20;;;3.45;;
73089;SDS011;61269;49.450;8.610;2023-02-03T01:37:21;7.00;;;3.00;;
73089;SDS011;61269;49.450;8.610;2023-02-03T01:39:50;9.98;;;2.72;;
73089;SDS011;61269;49.450;8.610;2023-02-03T01:42:19;6.47;;;2.75;;
73089;SDS011;61269;49.450;8.610;2023-02-03T01:44:49;7.78;;;2.58;;
73089;SDS011;61269;49.450;8.610;2023-02-03T01:47:23;5.93;;;2.63;;
73089;SDS011;61269;49.450;8.610;2023-02-03T01:49:55;8.07;;;2.53;;
73089;SDS011;61269;49.450;8.610;2023-02-03T01:52:27;8.25;;;2.60;;
73089;SDS011;61269;49.450;8.610;2023-02-03T01:54:56;5.65;;;2.92;;
73089;SDS011;61269;49.450;8.610;2023-02-03T01:57:26;5.28;;;2.20;;
73089;SDS011;61269;49.450;8.610;2023-02-03T01:59:58;6.43;;;2.38;;
73089;SDS011;61269;49.450;8.610;2023-02-03T02:02:28;7.10;;;2.73;;
73089;SDS011;61269;49.450;8.610;2023-02-03T02:04:57;6.43;;;2.22;;
73089;SDS011;61269;49.450;8.610;2023-02-03T02:07:30;5.03;;;2.25;;
73089;SDS011;61269;49.450;8.610;2023-02-03T02:09:59;7.82;;;2.60;;
73089;SDS011;61269;49.450;8.610;2023-02-03T02:12:29;6.05;;;2.50;;
73089;SDS011;61269;49.450;8.610;2023-02-03T02:14:58;6.30;;;2.53;;
73089;SDS011;61269;49.450;8.610;2023-02-03T02:17:34;8.52;;;2.45;;
73089;SDS011;61269;49.450;8.610;2023-02-03T02:20:23;7.20;;;2.60;;
73089;SDS011;61269;49.450;8.610;2023-02-03T02:23:06;5.65;;;2.45;;
73089;SDS011;61269;49.450;8.610;2023-02-03T02:25:47;6.57;;;2.33;;
73089;SDS011;61269;49.450;8.610;2023-02-03T02:28:32;7.33;;;2.60;;
73089;SDS011;61269;49.450;8.610;2023-02-03T02:34:13;6.63;;;3.30;;
73089;SDS011;61269;49.450;8.610;2023-02-03T02:36:44;8.63;;;2.55;;
73089;SDS011;61269;49.450;8.610;2023-02-03T02:39:22;5.80;;;2.42;;
73089;SDS011;61269;49.450;8.610;2023-02-03T02:41:55;5.33;;;2.23;;
73089;SDS011;61269;49.450;8.610;2023-02-03T02:44:27;7.70;;;2.50;;
73089;SDS011;61269;49.450;8.610;2023-02-03T02:47:01;5.65;;;2.30;;
73089;SDS011;61269;49.450;8.610;2023-02-03T02:49:34;5.78;;;2.22;;
73089;SDS011;61269;49.450;8.610;2023-02-03T02:52:05;7.13;;;2.80;;
73089;SDS011;61269;49.450;8.610;2023-02-03T02:54:36;6.17;;;2.17;;
73089;SDS011;61269;49.450;8.610;2023-02-03T02:57:08;4.32;;;2.10;;
73089;SDS011;61269;49.450;8.610;2023-02-03T02:59:37;5.75;;;2.85;;
73089;SDS011;61269;49.450;8.610;2023-02-03T03:02:08;5.97;;;2.42;;
73089;SDS011;61269;49.450;8.610;2023-02-03T03:04:38;4.85;;;2.30;;
73089;SDS011;61269;49.450;8.610;2023-02-03T03:07:08;5.47;;;2.00;;
73089;SDS011;61269;49.450;8.610;2023-02-03T03:09:40;6.95;;;2.60;;
73089;SDS011;61269;49.450;8.610;2023-02-03T03:12:11;5.53;;;2.60;;
73089;SDS011;61269;49.450;8.610;2023-02-03T03:14:43;5.45;;;2.40;;
73089;SDS011;61269;49.450;8.610;2023-02-03T03:17:18;4.60;;;2.33;;
73089;SDS011;61269;49.450;8.610;2023-02-03T03:19:51;4.20;;;2.50;;
73089;SDS011;61269;49.450;8.610;2023-02-03T03:22:23;6.97;;;2.40;;
73089;SDS011;61269;49.450;8.610;2023-02-03T03:24:55;6.13;;;2.60;;
73089;SDS011;61269;49.450;8.610;2023-02-03T03:27:28;6.55;;;2.67;;
73089;SDS011;61269;49.450;8.610;2023-02-03T03:29:59;6.47;;;3.00;;
73089;SDS011;61269;49.450;8.610;2023-02-03T03:32:30;6.30;;;2.93;;
73089;SDS011;61269;49.450;8.610;2023-02-03T03:34:59;8.30;;;2.97;;
73089;SDS011;61269;49.450;8.610;2023-02-03T03:37:30;5.93;;;2.70;;
73089;SDS011;61269;49.450;8.610;2023-02-03T03:40:05;5.97;;;2.55;;
73089;SDS011;61269;49.450;8.610;2023-02-03T03:42:37;6.78;;;2.40;;
73089;SDS011;61269;49.450;8.610;2023-02-03T03:45:09;7.70;;;2.67;;
73089;SDS011;61269;49.450;8.610;2023-02-03T03:47:43;5.57;;;2.80;;
73089;SDS011;61269;49.450;8.610;2023-02-03T03:50:15;4.97;;;2.63;;
73089;SDS011;61269;49.450;8.610;2023-02-03T03:52:45;6.82;;;2.60;;
73089;SDS011;61269;49.450;8.610;2023-02-03T03:55:14;6.00;;;2.75;;
73089;SDS011;61269;49.450;8.610;2023-02-03T03:57:44;7.17;;;2.80;;
73089;SDS011;61269;49.450;8.610;2023-02-03T04:00:16;6.30;;;2.45;;
73089;SDS011;61269;49.450;8.610;2023-02-03T04:02:49;6.60;;;2.92;;
73089;SDS011;61269;49.450;8.610;2023-02-03T04:05:20;5.68;;;2.28;;
73089;SDS011;61269;49.450;8.610;2023-02-03T04:07:48;5.53;;;2.95;;
73089;SDS011;61269;49.450;8.610;2023-02-03T04:10:20;9.00;;;3.33;;
73089;SDS011;61269;49.450;8.610;2023-02-03T04:12:52;6.28;;;2.70;;
73089;SDS011;61269;49.450;8.610;2023-02-03T04:15:21;6.28;;;3.22;;
73089;SDS011;61269;49.450;8.610;2023-02-03T04:17:51;5.32;;;2.80;;
73089;SDS011;61269;49.450;8.610;2023-02-03T04:20:20;7.07;;;2.72;;
73089;SDS011;61269;49.450;8.610;2023-02-03T04:22:49;5.97;;;2.70;;
73089;SDS011;61269;49.450;8.610;2023-02-03T04:25:18;5.82;;;2.50;;
73089;SDS011;61269;49.450;8.610;2023-02-03T04:27:46;5.28;;;2.85;;
73089;SDS011;61269;49.450;8.610;2023-02-03T04:30:15;6.15;;;2.80;;
73089;SDS011;61269;49.450;8.610;2023-02-03T04:32:44;8.10;;;3.70;;
73089;SDS011;61269;49.450;8.610;2023-02-03T04:35:14;5.03;;;2.50;;
73089;SDS011;61269;49.450;8.610;2023-02-03T04:37:43;5.72;;;2.95;;
73089;SDS011;61269;49.450;8.610;2023-02-03T04:40:11;7.70;;;2.95;;
73089;SDS011;61269;49.450;8.610;2023-02-03T04:42:40;5.47;;;2.80;;
73089;SDS011;61269;49.450;8.610;2023-02-03T04:45:09;5.53;;;2.72;;
73089;SDS011;61269;49.450;8.610;2023-02-03T04:47:39;7.17;;;3.10;;
73089;SDS011;61269;49.450;8.610;2023-02-03T04:50:07;6.10;;;2.65;;
73089;SDS011;61269;49.450;8.610;2023-02-03T04:52:37;6.70;;;3.42;;
73089;SDS011;61269;49.450;8.610;2023-02-03T04:55:06;6.75;;;2.97;;
73089;SDS011;61269;49.450;8.610;2023-02-03T04:57:35;6.35;;;2.70;;
73089;SDS011;61269;49.450;8.610;2023-02-03T05:00:04;7.10;;;2.80;;
73089;SDS011;61269;49.450;8.610;2023-02-03T05:02:33;5.82;;;2.40;;
73089;SDS011;61269;49.450;8.610;2023-02-03T05:05:01;6.68;;;3.25;;
73089;SDS011;61269;49.450;8.610;2023-02-03T05:07:30;6.43;;;3.13;;
73089;SDS011;61269;49.450;8.610;2023-02-03T05:09:59;6.35;;;2.92;;
73089;SDS011;61269;49.450;8.610;2023-02-03T05:12:28;5.80;;;2.80;;
73089;SDS011;61269;49.450;8.610;2023-02-03T05:14:56;7.45;;;3.08;;
73089;SDS011;61269;49.450;8.610;2023-02-03T05:17:24;5.60;;;2.95;;
73089;SDS011;61269;49.450;8.610;2023-02-03T05:19:53;8.60;;;3.35;;
73089;SDS011;61269;49.450;8.610;2023-02-03T05:22:21;6.70;;;3.90;;
73089;SDS011;61269;49.450;8.610;2023-02-03T05:24:50;6.43;;;2.90;;
73089;SDS011;61269;49.450;8.610;2023-02-03T05:27:19;6.10;;;2.58;;
73089;SDS011;61269;49.450;8.610;2023-02-03T05:29:48;5.97;;;3.25;;
73089;SDS011;61269;49.450;8.610;2023-02-03T05:32:16;5.95;;;3.08;;
73089;SDS011;61269;49.450;8.610;2023-02-03T05:34:46;7.68;;;2.85;;
73089;SDS011;61269;49.450;8.610;2023-02-03T05:37:14;5.17;;;2.80;;
73089;SDS011;61269;49.450;8.610;2023-02-03T05:39:42;5.30;;;2.85;;
73089;SDS011;61269;49.450;8.610;2023-02-03T05:42:10;6.07;;;2.90;;
73089;SDS011;61269;49.450;8.610;2023-02-03T05:44:39;7.30;;;3.30;;
73089;SDS011;61269;49.450;8.610;2023-02-03T05:47:08;5.72;;;3.10;;
73089;SDS011;61269;49.450;8.610;2023-02-03T05:49:36;6.70;;;3.13;;
73089;SDS011;61269;49.450;8.610;2023-02-03T05:52:04;7.28;;;3.10;;
73089;SDS011;61269;49.450;8.610;2023-02-03T05:54:33;6.25;;;3.28;;
73089;SDS011;61269;49.450;8.610;2023-02-03T05:57:01;6.70;;;2.85;;
73089;SDS011;61269;49.450;8.610;2023-02-03T05:59:30;7.65;;;3.40;;
73089;SDS011;61269;49.450;8.610;2023-02-03T06:01:59;6.73;;;3.30;;
73089;SDS011;61269;49.450;8.610;2023-02-03T06:04:27;8.45;;;3.92;;
73089;SDS011;61269;49.450;8.610;2023-02-03T06:06:56;8.43;;;4.30;;
73089;SDS011;61269;49.450;8.610;2023-02-03T06:09:24;10.18;;;4.18;;
73089;SDS011;61269;49.450;8.610;2023-02-03T06:11:52;7.07;;;3.67;;
73089;SDS011;61269;49.450;8.610;2023-02-03T06:14:21;8.63;;;4.40;;
73089;SDS011;61269;49.450;8.610;2023-02-03T06:16:49;8.38;;;4.60;;
73089;SDS011;61269;49.450;8.610;2023-02-03T06:19:19;8.75;;;4.13;;
73089;SDS011;61269;49.450;8.610;2023-02-03T06:21:47;7.72;;;3.38;;
73089;SDS011;61269;49.450;8.610;2023-02-03T06:24:16;8.02;;;3.30;;
73089;SDS011;61269;49.450;8.610;2023-02-03T06:26:44;7.40;;;2.90;;
73089;SDS011;61269;49.450;8.610;2023-02-03T06:29:13;6.35;;;2.80;;
73089;SDS011;61269;49.450;8.610;2023-02-03T06:31:41;6.93;;;3.00;;
73089;SDS011;61269;49.450;8.610;2023-02-03T06:34:10;5.13;;;2.90;;
73089;SDS011;61269;49.450;8.610;2023-02-03T06:36:40;6.70;;;2.58;;
73089;SDS011;61269;49.450;8.610;2023-02-03T06:39:09;6.70;;;2.33;;
73089;SDS011;61269;49.450;8.610;2023-02-03T06:41:37;7.60;;;3.63;;
73089;SDS011;61269;49.450;8.610;2023-02-03T06:44:05;7.15;;;3.30;;
73089;SDS011;61269;49.450;8.610;2023-02-03T06:46:34;7.78;;;3.42;;
73089;SDS011;61269;49.450;8.610;2023-02-03T06:49:03;10.55;;;4.03;;
73089;SDS011;61269;49.450;8.610;2023-02-03T06:51:31;6.47;;;2.57;;
73089;SDS011;61269;49.450;8.610;2023-02-03T06:54:01;6.13;;;2.42;;
73089;SDS011;61269;49.450;8.610;2023-02-03T06:56:30;7.03;;;3.13;;
73089;SDS011;61269;49.450;8.610;2023-02-03T06:58:59;6.13;;;3.20;;
73089;SDS011;61269;49.450;8.610;2023-02-03T07:01:27;5.60;;;2.78;;
73089;SDS011;61269;49.450;8.610;2023-02-03T07:03:55;5.57;;;2.43;;
73089;SDS011;61269;49.450;8.610;2023-02-03T07:06:24;5.47;;;2.90;;
73089;SDS011;61269;49.450;8.610;2023-02-03T07:08:56;5.80;;;2.60;;
73089;SDS011;61269;49.450;8.610;2023-02-03T07:11:28;7.55;;;2.92;;
73089;SDS011;61269;49.450;8.610;2023-02-03T07:13:57;7.80;;;3.63;;
73089;SDS011;61269;49.450;8.610;2023-02-03T07:16:25;7.17;;;3.10;;
73089;SDS011;61269;49.450;8.610;2023-02-03T07:18:54;7.43;;;3.10;;
73089;SDS011;61269;49.450;8.610;2023-02-03T07:21:29;6.20;;;3.45;;
73089;SDS011;61269;49.450;8.610;2023-02-03T07:23:57;8.98;;;3.50;;
73089;SDS011;61269;49.450;8.610;2023-02-03T07:26:26;7.32;;;3.33;;
73089;SDS011;61269;49.450;8.610;2023-02-03T07:28:56;7.07;;;3.10;;
73089;SDS011;61269;49.450;8.610;2023-02-03T07:31:26;8.68;;;3.17;;
73089;SDS011;61269;49.450;8.610;2023-02-03T07:33:55;6.90;;;3.10;;
73089;SDS011;61269;49.450;8.610;2023-02-03T07:36:23;6.95;;;3.25;;
73089;SDS011;61269;49.450;8.610;2023-02-03T07:38:52;5.93;;;2.78;;
73089;SDS011;61269;49.450;8.610;2023-02-03T07:41:20;7.17;;;3.17;;
73089;SDS011;61269;49.450;8.610;2023-02-03T07:43:48;4.65;;;2.58;;
73089;SDS011;61269;49.450;8.610;2023-02-03T07:46:18;6.90;;;2.90;;
73089;SDS011;61269;49.450;8.610;2023-02-03T07:48:47;7.35;;;2.83;;
73089;SDS011;61269;49.450;8.610;2023-02-03T07:51:15;5.63;;;2.70;;
73089;SDS011;61269;49.450;8.610;2023-02-03T07:53:43;6.10;;;2.60;;
73089;SDS011;61269;49.450;8.610;2023-02-03T07:56:12;5.43;;;2.95;;
73089;SDS011;61269;49.450;8.610;2023-02-03T07:58:40;7.30;;;3.17;;
73089;SDS011;61269;49.450;8.610;2023-02-03T08:01:09;7.15;;;3.40;;
73089;SDS011;61269;49.450;8.610;2023-02-03T08:03:40;6.88;;;3.58;;
73089;SDS011;61269;49.450;8.610;2023-02-03T08:06:08;5.37;;;2.80;;
73089;SDS011;61269;49.450;8.610;2023-02-03T08:08:37;7.70;;;2.90;;
73089;SDS011;61269;49.450;8.610;2023-02-03T08:11:05;7.32;;;3.05;;
73089;SDS011;61269;49.450;8.610;2023-02-03T08:13:34;5.75;;;2.70;;
73089;SDS011;61269;49.450;8.610;2023-02-03T08:16:02;6.15;;;2.58;;
73089;SDS011;61269;49.450;8.610;2023-02-03T08:18:31;6.60;;;2.70;;
73089;SDS011;61269;49.450;8.610;2023-02-03T08:21:01;4.45;;;2.60;;
73089;SDS011;61269;49.450;8.610;2023-02-03T08:23:30;5.15;;;2.38;;
73089;SDS011;61269;49.450;8.610;2023-02-03T08:25:59;3.78;;;2.15;;
73089;SDS011;61269;49.450;8.610;2023-02-03T08:28:27;4.20;;;2.15;;
73089;SDS011;61269;49.450;8.610;2023-02-03T08:30:56;4.60;;;2.10;;
73089;SDS011;61269;49.450;8.610;2023-02-03T08:33:24;5.20;;;2.08;;
73089;SDS011;61269;49.450;8.610;2023-02-03T08:35:53;5.47;;;2.25;;
73089;SDS011;61269;49.450;8.610;2023-02-03T08:38:23;5.65;;;2.13;;
73089;SDS011;61269;49.450;8.610;2023-02-03T08:40:52;6.88;;;2.80;;
73089;SDS011;61269;49.450;8.610;2023-02-03T08:43:20;5.80;;;2.23;;
73089;SDS011;61269;49.450;8.610;2023-02-03T08:45:48;5.88;;;2.42;;
73089;SDS011;61269;49.450;8.610;2023-02-03T08:48:17;5.15;;;2.10;;
73089;SDS011;61269;49.450;8.610;2023-02-03T08:50:45;4.68;;;1.90;;
73089;SDS011;61269;49.450;8.610;2023-02-03T08:53:18;4.43;;;1.98;;
73089;SDS011;61269;49.450;8.610;2023-02-03T08:55:48;6.17;;;2.27;;
73089;SDS011;61269;49.450;8.610;2023-02-03T08:58:16;5.82;;;2.33;;
73089;SDS011;61269;49.450;8.610;2023-02-03T09:00:45;5.05;;;2.25;;
73089;SDS011;61269;49.450;8.610;2023-02-03T09:03:15;4.32;;;1.70;;
73089;SDS011;61269;49.450;8.610;2023-02-03T09:05:44;4.72;;;1.90;;
73089;SDS011;61269;49.450;8.610;2023-02-03T09:08:12;5.27;;;1.80;;
73089;SDS011;61269;49.450;8.610;2023-02-03T09:10:40;4.63;;;1.92;;
73089;SDS011;61269;49.450;8.610;2023-02-03T09:13:10;4.32;;;1.90;;
73089;SDS011;61269;49.450;8.610;2023-02-03T09:15:39;3.80;;;1.98;;
73089;SDS011;61269;49.450;8.610;2023-02-03T09:18:07;4.05;;;1.85;;
73089;SDS011;61269;49.450;8.610;2023-02-03T09:20:36;5.50;;;2.83;;
73089;SDS011;61269;49.450;8.610;2023-02-03T09:23:04;4.25;;;2.20;;
73089;SDS011;61269;49.450;8.610;2023-02-03T09:25:33;3.83;;;2.10;;
73089;SDS011;61269;49.450;8.610;2023-02-03T09:28:01;6.03;;;2.30;;
73089;SDS011;61269;49.450;8.610;2023-02-03T09:30:31;4.85;;;2.22;;
73089;SDS011;61269;49.450;8.610;2023-02-03T09:32:59;6.33;;;3.20;;
73089;SDS011;61269;49.450;8.610;2023-02-03T09:35:28;5.95;;;2.88;;
73089;SDS011;61269;49.450;8.610;2023-02-03T09:37:57;6.80;;;2.78;;
73089;SDS011;61269;49.450;8.610;2023-02-03T09:40:26;7.13;;;2.42;;
73089;SDS011;61269;49.450;8.610;2023-02-03T09:43:09;8.60;;;3.60;;
73089;SDS011;61269;49.450;8.610;2023-02-03T09:45:42;4.97;;;2.50;;
73089;SDS011;61269;49.450;8.610;2023-02-03T09:48:11;6.50;;;2.75;;
73089;SDS011;61269;49.450;8.610;2023-02-03T09:50:41;7.03;;;3.50;;
73089;SDS011;61269;49.450;8.610;2023-02-03T09:53:21;4.63;;;1.90;;
73089;SDS011;61269;49.450;8.610;2023-02-03T09:55:53;4.13;;;1.85;;
73089;SDS011;61269;49.450;8.610;2023-02-03T09:58:22;3.03;;;1.57;;
73089;SDS011;61269;49.450;8.610;2023-02-03T10:00:53;3.63;;;1.45;;
73089;SDS011;61269;49.450;8.610;2023-02-03T10:03:24;3.95;;;1.80;;
73089;SDS011;61269;49.450;8.610;2023-02-03T10:06:05;5.25;;;1.65;;
73089;SDS011;61269;49.450;8.610;2023-02-03T10:08:48;3.97;;;1.90;;
73089;SDS011;61269;49.450;8.610;2023-02-03T10:11:27;4.17;;;2.13;;
73089;SDS011;61269;49.450;8.610;2023-02-03T10:14:06;3.35;;;1.50;;
73089;SDS011;61269;49.450;8.610;2023-02-03T10:16:44;4.88;;;1.60;;
73089;SDS011;61269;49.450;8.610;2023-02-03T10:19:17;3.40;;;1.83;;
73089;SDS011;61269;49.450;8.610;2023-02-03T10:21:49;3.25;;;1.73;;
73089;SDS011;61269;49.450;8.610;2023-02-03T10:24:27;3.23;;;1.80;;
73089;SDS011;61269;49.450;8.610;2023-02-03T10:27:01;4.38;;;1.58;;
73089;SDS011;61269;49.450;8.610;2023-02-03T10:29:30;4.47;;;2.20;;
73089;SDS011;61269;49.450;8.610;2023-02-03T10:32:06;4.22;;;2.25;;
73089;SDS011;61269;49.450;8.610;2023-02-03T10:34:36;4.90;;;2.47;;
73089;SDS011;61269;49.450;8.610;2023-02-03T10:37:08;4.93;;;2.07;;
73089;SDS011;61269;49.450;8.610;2023-02-03T10:39:41;4.60;;;2.20;;
73089;SDS011;61269;49.450;8.610;2023-02-03T10:42:12;4.65;;;2.00;;
73089;SDS011;61269;49.450;8.610;2023-02-03T10:44:41;4.03;;;2.30;;
73089;SDS011;61269;49.450;8.610;2023-02-03T10:47:22;5.43;;;2.80;;
73089;SDS011;61269;49.450;8.610;2023-02-03T10:49:53;6.80;;;2.57;;
73089;SDS011;61269;49.450;8.610;2023-02-03T10:52:27;4.65;;;2.10;;
73089;SDS011;61269;49.450;8.610;2023-02-03T10:55:03;4.97;;;2.00;;
73089;SDS011;61269;49.450;8.610;2023-02-03T10:57:34;2.65;;;1.58;;
73089;SDS011;61269;49.450;8.610;2023-02-03T11:00:06;4.35;;;1.65;;
73089;SDS011;61269;49.450;8.610;2023-02-03T11:02:55;4.07;;;1.90;;
73089;SDS011;61269;49.450;8.610;2023-02-03T11:05:23;3.20;;;1.35;;
73089;SDS011;61269;49.450;8.610;2023-02-03T11:07:52;3.33;;;1.90;;
73089;SDS011;61269;49.450;8.610;2023-02-03T11:10:25;4.28;;;2.13;;
73089;SDS011;61269;49.450;8.610;2023-02-03T11:13:10;4.53;;;2.22;;
73089;SDS011;61269;49.450;8.610;2023-02-03T11:15:44;4.43;;;2.27;;
73089;SDS011;61269;49.450;8.610;2023-02-03T11:18:42;4.18;;;2.00;;
73089;SDS011;61269;49.450;8.610;2023-02-03T11:21:14;5.10;;;1.80;;
73089;SDS011;61269;49.450;8.610;2023-02-03T11:23:48;3.45;;;2.17;;
73089;SDS011;61269;49.450;8.610;2023-02-03T11:26:21;4.00;;;1.92;;
73089;SDS011;61269;49.450;8.610;2023-02-03T11:28:51;4.30;;;2.00;;
73089;SDS011;61269;49.450;8.610;2023-02-03T11:31:22;2.97;;;1.83;;
73089;SDS011;61269;49.450;8.610;2023-02-03T11:33:54;4.45;;;2.22;;
73089;SDS011;61269;49.450;8.610;2023-02-03T11:36:25;3.72;;;2.08;;
73089;SDS011;61269;49.450;8.610;2023-02-03T11:41:47;4.40;;;1.80;;
73089;SDS011;61269;49.450;8.610;2023-02-03T11:44:17;4.13;;;1.85;;
73089;SDS011;61269;49.450;8.610;2023-02-03T11:46:47;4.55;;;2.40;;
73089;SDS011;61269;49.450;8.610;2023-02-03T11:49:26;4.68;;;2.03;;
73089;SDS011;61269;49.450;8.610;2023-02-03T11:52:37;3.60;;;1.67;;
73089;SDS011;61269;49.450;8.610;2023-02-03T11:55:16;3.50;;;1.50;;
73089;SDS011;61269;49.450;8.610;2023-02-03T11:57:51;3.05;;;1.63;;
73089;SDS011;61269;49.450;8.610;2023-02-03T12:00:28;5.00;;;1.70;;
73089;SDS011;61269;49.450;8.610;2023-02-03T12:06:13;5.35;;;1.73;;
73089;SDS011;61269;49.450;8.610;2023-02-03T12:08:53;5.23;;;1.33;;
73089;SDS011;61269;49.450;8.610;2023-02-03T12:11:36;7.15;;;1.70;;
73089;SDS011;61269;49.450;8.610;2023-02-03T12:14:28;5.82;;;2.20;;
73089;SDS011;61269;49.450;8.610;2023-02-03T12:17:18;2.83;;;1.10;;
73089;SDS011;61269;49.450;8.610;2023-02-03T12:19:55;4.55;;;1.90;;
73089;SDS011;61269;49.450;8.610;2023-02-03T12:22:38;4.27;;;1.80;;
73089;SDS011;61269;49.450;8.610;2023-02-03T12:25:27;2.85;;;1.23;;
73089;SDS011;61269;49.450;8.610;2023-02-03T12:28:04;4.32;;;1.90;;
73089;SDS011;61269;49.450;8.610;2023-02-03T12:30:48;3.90;;;1.48;;
73089;SDS011;61269;49.450;8.610;2023-02-03T12:33:20;2.58;;;1.40;;
73089;SDS011;61269;49.450;8.610;2023-02-03T12:35:53;2.60;;;1.20;;
73089;SDS011;61269;49.450;8.610;2023-02-03T12:38:28;3.22;;;1.45;;
73089;SDS011;61269;49.450;8.610;2023-02-03T12:40:59;1.95;;;1.05;;
73089;SDS011;61269;49.450;8.610;2023-02-03T12:43:30;2.22;;;1.10;;
73089;SDS011;61269;49.450;8.610;2023-02-03T12:46:04;2.80;;;1.13;;
73089;SDS011;61269;49.450;8.610;2023-02-03T12:48:40;3.87;;;1.37;;
73089;SDS011;61269;49.450;8.610;2023-02-03T12:51:13;2.15;;;1.30;;
73089;SDS011;61269;49.450;8.610;2023-02-03T12:53:47;3.10;;;1.40;;
73089;SDS011;61269;49.450;8.610;2023-02-03T12:56:21;3.65;;;1.10;;
73089;SDS011;61269;49.450;8.610;2023-02-03T12:58:53;2.13;;;1.17;;
73089;SDS011;61269;49.450;8.610;2023-02-03T13:01:24;3.67;;;1.37;;
73089;SDS011;61269;49.450;8.610;2023-02-03T13:03:54;1.95;;;1.20;;
73089;SDS011;61269;49.450;8.610;2023-02-03T13:06:29;3.72;;;1.30;;
73089;SDS011;61269;49.450;8.610;2023-02-03T13:09:12;1.88;;;0.82;;
73089;SDS011;61269;49.450;8.610;2023-02-03T13:11:50;3.95;;;1.20;;
73089;SDS011;61269;49.450;8.610;2023-02-03T13:14:21;1.83;;;0.87;;
73089;SDS011;61269;49.450;8.610;2023-02-03T13:16:52;2.33;;;1.02;;
73089;SDS011;61269;49.450;8.610;2023-02-03T13:19:26;3.08;;;1.10;;
73089;SDS011;61269;49.450;8.610;2023-02-03T13:21:57;2.83;;;0.90;;
73089;SDS011;61269;49.450;8.610;2023-02-03T13:24:31;9.57;;;0.90;;
73089;SDS011;61269;49.450;8.610;2023-02-03T13:27:03;1.60;;;0.80;;
73089;SDS011;61269;49.450;8.610;2023-02-03T13:30:02;2.03;;;0.85;;
73089;SDS011;61269;49.450;8.610;2023-02-03T13:32:52;1.80;;;1.02;;
73089;SDS011;61269;49.450;8.610;2023-02-03T13:35:40;3.45;;;1.23;;
73089;SDS011;61269;49.450;8.610;2023-02-03T13:38:34;1.92;;;0.90;;
73089;SDS011;61269;49.450;8.610;2023-02-03T13:41:09;1.73;;;1.10;;
73089;SDS011;61269;49.450;8.610;2023-02-03T13:43:45;1.65;;;1.10;;
73089;SDS011;61269;49.450;8.610;2023-02-03T13:46:18;1.40;;;0.80;;
73089;SDS011;61269;49.450;8.610;2023-02-03T13:48:49;1.98;;;0.90;;
73089;SDS011;61269;49.450;8.610;2023-02-03T13:51:20;2.05;;;1.30;;
73089;SDS011;61269;49.450;8.610;2023-02-03T13:53:50;3.13;;;1.57;;
73089;SDS011;61269;49.450;8.610;2023-02-03T13:56:21;3.03;;;0.98;;
73089;SDS011;61269;49.450;8.610;2023-02-03T13:58:58;2.30;;;1.13;;
73089;SDS011;61269;49.450;8.610;2023-02-03T14:01:30;1.35;;;0.82;;
73089;SDS011;61269;49.450;8.610;2023-02-03T14:04:02;2.65;;;1.10;;
73089;SDS011;61269;49.450;8.610;2023-02-03T14:09:34;1.52;;;0.95;;
73089;SDS011;61269;49.450;8.610;2023-02-03T14:12:18;1.70;;;0.98;;
73089;SDS011;61269;49.450;8.610;2023-02-03T14:15:15;1.85;;;0.88;;
73089;SDS011;61269;49.450;8.610;2023-02-03T14:17:57;2.15;;;1.25;;
73089;SDS011;61269;49.450;8.610;2023-02-03T14:20:44;2.20;;;1.03;;
73089;SDS011;61269;49.450;8.610;2023-02-03T14:23:18;2.03;;;0.98;;
73089;SDS011;61269;49.450;8.610;2023-02-03T14:25:49;1.67;;;0.93;;
73089;SDS011;61269;49.450;8.610;2023-02-03T14:28:21;1.67;;;0.85;;
73089;SDS011;61269;49.450;8.610;2023-02-03T14:31:04;2.03;;;0.90;;
73089;SDS011;61269;49.450;8.610;2023-02-03T14:33:43;5.43;;;1.00;;
73089;SDS011;61269;49.450;8.610;2023-02-03T14:36:30;2.75;;;1.00;;
73089;SDS011;61269;49.450;8.610;2023-02-03T14:39:02;1.95;;;1.00;;
73089;SDS011;61269;49.450;8.610;2023-02-03T14:41:36;2.72;;;1.15;;
73089;SDS011;61269;49.450;8.610;2023-02-03T14:44:16;1.73;;;1.08;;
73089;SDS011;61269;49.450;8.610;2023-02-03T14:46:55;1.80;;;0.93;;
73089;SDS011;61269;49.450;8.610;2023-02-03T14:49:31;1.58;;;0.85;;
73089;SDS011;61269;49.450;8.610;2023-02-03T14:52:16;4.00;;;1.73;;
73089;SDS011;61269;49.450;8.610;2023-02-03T14:55:04;2.28;;;1.15;;
73089;SDS011;61269;49.450;8.610;2023-02-03T14:57:42;2.15;;;1.20;;
73089;SDS011;61269;49.450;8.610;2023-02-03T15:00:27;2.67;;;1.10;;
73089;SDS011;61269;49.450;8.610;2023-02-03T15:03:16;2.63;;;1.40;;
73089;SDS011;61269;49.450;8.610;2023-02-03T15:05:49;2.30;;;1.10;;
73089;SDS011;61269;49.450;8.610;2023-02-03T15:08:29;2.85;;;1.08;;
73089;SDS011;61269;49.450;8.610;2023-02-03T15:11:29;3.92;;;1.35;;
73089;SDS011;61269;49.450;8.610;2023-02-03T15:14:17;2.67;;;1.13;;
73089;SDS011;61269;49.450;8.610;2023-02-03T15:16:51;3.03;;;1.20;;
73089;SDS011;61269;49.450;8.610;2023-02-03T15:19:23;2.67;;;1.35;;
73089;SDS011;61269;49.450;8.610;2023-02-03T15:21:53;2.88;;;1.25;;
73089;SDS011;61269;49.450;8.610;2023-02-03T15:24:22;2.50;;;1.42;;
73089;SDS011;61269;49.450;8.610;2023-02-03T15:26:52;1.80;;;1.10;;
73089;SDS011;61269;49.450;8.610;2023-02-03T15:29:24;2.15;;;1.30;;